createdAt,value
2022-09-05T00:02:03.282Z,100802.34
2022-09-05T00:05:15.130Z,100805.81
2022-09-05T00:08:42.964Z,100798.56
2022-09-05T00:11:46.617Z,100799.44
2022-09-05T00:14:34.302Z,100796.63
2022-09-05T00:19:16.172Z,100786.03
2022-09-05T00:24:29.713Z,100786.44
2022-09-05T00:24:37.158Z,100789.06
2022-09-05T00:27:28.929Z,100773.59
2022-09-05T00:31:07.767Z,100775.09
2022-09-05T00:33:21.635Z,100791.22
2022-09-05T00:36:19.653Z,100788.50
2022-09-05T00:39:06.681Z,100771.84
2022-09-05T00:41:37.006Z,100779.31
2022-09-05T00:44:06.490Z,100772.38
2022-09-05T00:46:43.195Z,100774.97
2022-09-05T00:49:30.943Z,100782.09
2022-09-05T00:52:34.472Z,100789.88
2022-09-05T00:55:20.786Z,100788.16
2022-09-05T00:58:36.798Z,100785.75
2022-09-05T01:01:26.760Z,100785.31
2022-09-05T01:04:27.998Z,100777.13
2022-09-05T01:07:14.317Z,100777.44
2022-09-05T01:10:32.149Z,100773.56
2022-09-05T01:13:12.763Z,100761.78
2022-09-05T01:16:13.705Z,100762.63
2022-09-05T01:18:57.296Z,100756.13
2022-09-05T01:22:09.431Z,100761.78
2022-09-05T01:25:17.989Z,100759.84
2022-09-05T01:29:15.151Z,100759.75
2022-09-05T01:31:18.892Z,100760.50
2022-09-05T01:33:58.375Z,100758.44
2022-09-05T01:37:06.002Z,100752.19
2022-09-05T01:40:16.456Z,100760.28
2022-09-05T01:43:26.296Z,100756.84
2022-09-05T01:46:19.638Z,100756.94
2022-09-05T01:49:12.286Z,100751.44
2022-09-05T01:52:11.464Z,100757.47
2022-09-05T01:55:19.721Z,100761.16
2022-09-05T01:58:13.473Z,100752.19
2022-09-05T02:01:25.357Z,100752.00
2022-09-05T02:04:34.678Z,100749.16
2022-09-05T02:07:31.734Z,100758.81
2022-09-05T02:10:33.352Z,100756.41
2022-09-05T02:13:26.665Z,100745.72
2022-09-05T02:16:48.750Z,100748.06
2022-09-05T02:19:25.724Z,100749.38
2022-09-05T02:22:23.249Z,100743.97
2022-09-05T02:28:04.615Z,100757.28
2022-09-05T02:30:48.537Z,100745.38
2022-09-05T02:34:01.737Z,100756.72
2022-09-05T02:36:46.998Z,100766.28
2022-09-05T02:45:14.076Z,100762.00
2022-09-05T02:45:21.004Z,100768.50
2022-09-05T02:46:20.328Z,100771.09
2022-09-05T02:50:26.865Z,100764.41
2022-09-05T02:57:29.377Z,100767.59
2022-09-05T02:57:32.672Z,100761.94
2022-09-05T02:58:53.381Z,100757.81
2022-09-05T03:01:52.554Z,100764.59
2022-09-05T03:04:44.126Z,100744.31
2022-09-05T03:07:48.332Z,100753.94
2022-09-05T03:10:53.345Z,100758.47
2022-09-05T03:13:53.844Z,100762.34
2022-09-05T03:16:25.542Z,100760.16
2022-09-05T03:19:20.883Z,100760.47
2022-09-05T03:22:37.132Z,100763.94
2022-09-05T03:25:35.233Z,100760.59
2022-09-05T03:28:36.340Z,100757.91
2022-09-05T03:31:29.413Z,100762.53
2022-09-05T03:34:37.749Z,100757.63
2022-09-05T03:37:46.567Z,100746.94
2022-09-05T03:40:26.360Z,100753.00
2022-09-05T03:43:50.018Z,100756.84
2022-09-05T03:46:50.911Z,100748.69
2022-09-05T03:52:42.875Z,100757.53
2022-09-05T03:57:13.121Z,100767.63
2022-09-05T03:57:17.338Z,100757.94
2022-09-05T03:59:09.769Z,100757.63
2022-09-05T04:03:58.919Z,100760.91
2022-09-05T04:08:19.032Z,100737.13
2022-09-05T04:08:20.564Z,100758.22
2022-09-05T04:10:39.837Z,100747.78
2022-09-05T04:13:33.912Z,100750.72
2022-09-05T04:16:47.080Z,100751.56
2022-09-05T04:19:33.946Z,100760.81
2022-09-05T04:22:59.431Z,100763.09
2022-09-05T04:26:02.931Z,100758.50
2022-09-05T04:29:03.348Z,100764.75
2022-09-05T04:32:19.095Z,100767.63
2022-09-05T04:35:13.407Z,100759.19
2022-09-05T04:38:05.583Z,100761.75
2022-09-05T04:40:55.867Z,100766.41
2022-09-05T04:43:48.157Z,100765.50
2022-09-05T04:46:48.476Z,100761.28
2022-09-05T04:49:44.302Z,100766.47
2022-09-05T04:52:32.560Z,100776.09
2022-09-05T04:55:21.397Z,100773.22
2022-09-05T04:58:07.202Z,100779.38
2022-09-05T05:06:02.138Z,100785.63
2022-09-05T05:06:22.511Z,100776.22
2022-09-05T05:06:45.376Z,100788.25
2022-09-05T05:10:43.974Z,100791.88
2022-09-05T05:18:02.535Z,100796.13
2022-09-05T05:18:11.152Z,100802.19
2022-09-05T05:19:26.384Z,100809.25
2022-09-05T05:22:00.334Z,100802.91
2022-09-05T05:24:36.556Z,100803.78
2022-09-05T05:27:25.909Z,100806.06
2022-09-05T05:30:10.439Z,100798.44
2022-09-05T05:32:49.354Z,100808.28
2022-09-05T05:35:47.958Z,100811.63
2022-09-05T05:38:37.611Z,100820.59
2022-09-05T05:41:30.835Z,100819.53
2022-09-05T05:43:59.394Z,100826.84
2022-09-05T05:46:36.435Z,100822.91
2022-09-05T05:49:23.560Z,100824.41
2022-09-05T05:52:02.358Z,100827.69
2022-09-05T05:55:36.284Z,100817.00
2022-09-05T05:58:08.166Z,100836.75
2022-09-05T06:01:00.736Z,100840.25
2022-09-05T06:03:56.595Z,100850.91
2022-09-05T06:07:04.254Z,100855.75
2022-09-05T06:14:53.255Z,100850.25
2022-09-05T06:15:00.310Z,100854.19
2022-09-05T06:17:04.176Z,100849.91
2022-09-05T06:22:05.042Z,100850.06
2022-09-05T06:24:01.918Z,100864.25
2022-09-05T06:27:08.125Z,100862.06
2022-09-05T06:30:20.392Z,100864.38
2022-09-05T06:33:13.283Z,100868.84
2022-09-05T06:36:09.726Z,100869.41
2022-09-05T06:39:16.339Z,100863.09
2022-09-05T06:42:11.035Z,100866.56
2022-09-05T06:45:58.729Z,100865.66
2022-09-05T06:48:46.475Z,100873.78
2022-09-05T06:52:36.796Z,100879.28
2022-09-05T06:55:50.871Z,100885.34
2022-09-05T06:58:54.165Z,100878.00
2022-09-05T07:01:39.989Z,100873.78
2022-09-05T07:05:23.347Z,100878.06
2022-09-05T07:07:49.846Z,100880.09
2022-09-05T07:10:39.682Z,100867.47
2022-09-05T07:13:38.842Z,100868.44
2022-09-05T07:16:18.095Z,100874.38
2022-09-05T07:19:33.278Z,100869.56
2022-09-05T07:22:47.326Z,100877.88
2022-09-05T07:25:22.004Z,100885.78
2022-09-05T07:28:29.451Z,100875.69
2022-09-05T07:31:10.539Z,100875.69
2022-09-05T07:33:40.975Z,100875.94
2022-09-05T07:36:33.905Z,100875.59
2022-09-05T07:39:27.781Z,100870.63
2022-09-05T07:41:57.717Z,100877.66
2022-09-05T07:44:56.519Z,100876.69
2022-09-05T07:47:41.808Z,100884.16
2022-09-05T07:53:31.167Z,100881.72
2022-09-05T07:56:49.589Z,100894.28
2022-09-05T07:56:51.465Z,100873.25
2022-09-05T07:58:52.835Z,100900.41
2022-09-05T08:01:23.037Z,100901.28
2022-09-05T08:04:00.420Z,100890.34
2022-09-05T08:07:11.938Z,100896.63
2022-09-05T08:10:08.008Z,100900.72
2022-09-05T08:13:24.400Z,100904.94
2022-09-05T08:16:09.879Z,100904.81
2022-09-05T08:19:09.763Z,100902.47
2022-09-05T08:21:47.268Z,100898.06
2022-09-05T08:24:53.801Z,100904.50
2022-09-05T08:27:50.335Z,100905.00
2022-09-05T08:30:26.390Z,100900.22
2022-09-05T08:33:12.828Z,100896.44
2022-09-05T08:35:57.778Z,100903.75
2022-09-05T08:38:40.574Z,100894.94
2022-09-05T08:41:44.729Z,100909.25
2022-09-05T08:46:41.610Z,100901.00
2022-09-05T08:48:03.290Z,100907.41
2022-09-05T08:51:28.350Z,100901.41
2022-09-05T08:55:04.255Z,100902.00
2022-09-05T08:58:09.210Z,100894.34
2022-09-05T09:01:06.440Z,100897.81
2022-09-05T09:04:15.219Z,100893.75
2022-09-05T09:07:51.686Z,100908.16
2022-09-05T09:10:40.727Z,100892.75
2022-09-05T09:13:52.618Z,100889.66
2022-09-05T09:17:00.261Z,100895.09
2022-09-05T09:20:16.016Z,100898.53
2022-09-05T09:23:03.908Z,100893.59
2022-09-05T09:26:04.510Z,100891.91
2022-09-05T09:28:51.419Z,100892.16
2022-09-05T09:31:29.153Z,100899.66
2022-09-05T09:34:36.700Z,100897.19
2022-09-05T09:37:48.261Z,100896.94
2022-09-05T09:41:02.763Z,100887.44
2022-09-05T09:44:08.849Z,100893.19
2022-09-05T09:46:45.906Z,100888.16
2022-09-05T09:49:25.672Z,100879.47
2022-09-05T09:52:30.486Z,100870.78
2022-09-05T09:55:17.305Z,100879.06
2022-09-05T09:58:30.637Z,100864.97
2022-09-05T10:01:35.937Z,100864.78
2022-09-05T10:07:53.175Z,100865.72
2022-09-05T10:10:50.234Z,100865.94
2022-09-05T10:11:41.366Z,100859.56
2022-09-05T10:14:47.809Z,100853.44
2022-09-05T10:17:29.619Z,100843.50
2022-09-05T10:20:36.128Z,100843.72
2022-09-05T10:23:44.869Z,100833.13
2022-09-05T10:27:03.894Z,100826.75
2022-09-05T10:30:08.947Z,100817.91
2022-09-05T10:35:08.910Z,100810.78
2022-09-05T10:36:22.598Z,100815.50
2022-09-05T10:39:25.848Z,100813.69
2022-09-05T10:42:35.757Z,100814.88
2022-09-05T10:45:31.356Z,100803.28
2022-09-05T10:48:36.447Z,100808.63
2022-09-05T10:51:27.744Z,100806.47
2022-09-05T10:54:14.626Z,100813.94
2022-09-05T10:57:04.657Z,100797.88
2022-09-05T11:02:20.362Z,100804.06
2022-09-05T11:02:48.221Z,100789.00
2022-09-05T11:05:27.636Z,100790.16
2022-09-05T11:08:13.632Z,100789.44
2022-09-05T11:11:34.005Z,100784.56
2022-09-05T11:14:31.122Z,100774.38
2022-09-05T11:17:24.461Z,100779.81
2022-09-05T11:20:37.242Z,100787.41
2022-09-05T11:23:40.652Z,100771.34
2022-09-05T11:26:35.286Z,100770.00
2022-09-05T11:29:18.270Z,100767.56
2022-09-05T11:36:14.682Z,100770.88
2022-09-05T11:39:47.375Z,100777.44
2022-09-05T11:40:04.230Z,100782.31
2022-09-05T11:41:27.638Z,100756.53
2022-09-05T11:44:50.421Z,100773.25
2022-09-05T11:47:44.384Z,100765.03
2022-09-05T11:50:43.307Z,100770.59
2022-09-05T11:54:03.411Z,100766.25
2022-09-05T11:57:32.366Z,100746.69
2022-09-05T12:00:33.000Z,100760.97
2022-09-05T12:03:57.602Z,100752.06
2022-09-05T12:06:33.855Z,100736.03
2022-09-05T12:09:42.371Z,100726.63
2022-09-05T12:12:59.863Z,100735.31
2022-09-05T12:15:34.642Z,100728.66
2022-09-05T12:18:37.796Z,100730.84
2022-09-05T12:21:42.804Z,100720.78
2022-09-05T12:25:26.138Z,100725.47
2022-09-05T12:28:28.652Z,100719.69
2022-09-05T12:32:31.021Z,100703.38
2022-09-05T12:36:08.506Z,100704.47
2022-09-05T12:40:53.734Z,100700.75
2022-09-05T12:41:46.169Z,100698.22
2022-09-05T12:44:55.853Z,100697.41
2022-09-05T12:47:30.322Z,100710.47
2022-09-05T12:50:14.224Z,100699.91
2022-09-05T12:52:51.031Z,100694.81
2022-09-05T12:56:38.674Z,100696.22
2022-09-05T13:03:09.580Z,100697.94
2022-09-05T13:03:14.184Z,100674.00
2022-09-05T13:04:44.067Z,100678.50
2022-09-05T13:07:43.000Z,100676.72
2022-09-05T13:14:11.610Z,100665.03
2022-09-05T13:15:08.043Z,100668.31
2022-09-05T13:16:54.423Z,100673.50
2022-09-05T13:19:29.460Z,100657.75
2022-09-05T13:22:01.228Z,100666.31
2022-09-05T13:24:37.517Z,100662.25
2022-09-05T13:27:26.467Z,100659.69
2022-09-05T13:33:01.889Z,100656.81
2022-09-05T13:38:01.632Z,100644.53
2022-09-05T13:38:10.674Z,100652.88
2022-09-05T13:39:12.606Z,100640.94
2022-09-05T13:41:50.071Z,100633.75
2022-09-05T13:44:27.442Z,100636.31
2022-09-05T13:47:29.699Z,100638.25
2022-09-05T13:50:20.345Z,100631.75
2022-09-05T13:53:21.555Z,100633.28
2022-09-05T13:56:03.079Z,100629.81
2022-09-05T13:58:57.266Z,100623.34
2022-09-05T14:02:29.183Z,100616.34
2022-09-05T14:05:20.855Z,100616.00
2022-09-05T14:08:20.099Z,100600.47
2022-09-05T14:11:55.507Z,100603.75
2022-09-05T14:20:28.096Z,100618.66
2022-09-05T14:23:15.868Z,100604.59
2022-09-05T14:25:57.856Z,100597.25
2022-09-05T14:28:46.568Z,100585.44
2022-09-05T14:36:10.938Z,100589.56
2022-09-05T14:37:51.224Z,100585.09
2022-09-05T14:38:16.101Z,100592.97
2022-09-05T14:41:43.212Z,100595.56
2022-09-05T14:44:57.142Z,100591.63
2022-09-05T14:47:47.569Z,100595.38
2022-09-05T14:51:04.753Z,100584.59
2022-09-05T14:59:12.343Z,100571.59
2022-09-05T15:02:45.352Z,100577.41
2022-09-05T15:03:04.982Z,100574.66
2022-09-05T15:05:40.946Z,100560.97
2022-09-05T15:10:02.354Z,100570.03
2022-09-05T15:12:20.729Z,100561.81
2022-09-05T15:14:08.044Z,100561.63
2022-09-05T15:16:43.510Z,100552.75
2022-09-05T15:19:14.143Z,100561.16
2022-09-05T15:21:42.142Z,100550.19
2022-09-05T15:24:23.016Z,100547.59
2022-09-05T15:26:59.525Z,100555.16
2022-09-05T15:29:36.874Z,100547.25
2022-09-05T15:32:21.653Z,100540.75
2022-09-05T15:34:56.569Z,100532.19
2022-09-05T15:37:36.119Z,100532.88
2022-09-05T15:40:22.629Z,100529.63
2022-09-05T15:43:00.622Z,100538.19
2022-09-05T15:45:38.037Z,100534.22
2022-09-05T15:48:12.519Z,100526.00
2022-09-05T15:50:59.118Z,100516.25
2022-09-05T15:53:36.792Z,100523.09
2022-09-05T15:56:10.953Z,100517.63
2022-09-05T15:58:56.481Z,100515.03
2022-09-05T16:01:58.583Z,100510.59
2022-09-05T16:10:31.214Z,100501.38
2022-09-05T16:10:33.564Z,100500.16
2022-09-05T16:10:57.882Z,100508.88
2022-09-05T16:13:17.661Z,100492.31
2022-09-05T16:21:51.315Z,100498.78
2022-09-05T16:23:30.678Z,100493.63
2022-09-05T16:23:34.074Z,100487.81
2022-09-05T16:24:59.949Z,100495.84
2022-09-05T16:27:44.701Z,100490.38
2022-09-05T16:30:26.805Z,100484.56
2022-09-05T16:33:18.492Z,100482.88
2022-09-05T16:36:17.300Z,100484.59
2022-09-05T16:39:09.024Z,100487.50
2022-09-05T16:41:51.359Z,100491.97
2022-09-05T16:44:54.127Z,100498.78
2022-09-05T16:47:36.506Z,100487.63
2022-09-05T16:50:34.852Z,100492.25
2022-09-05T16:53:02.769Z,100496.34
2022-09-05T16:55:58.114Z,100481.94
2022-09-05T16:58:32.854Z,100496.28
2022-09-05T17:01:23.654Z,100490.06
2022-09-05T17:04:17.685Z,100492.06
2022-09-05T17:07:23.099Z,100478.03
2022-09-05T17:09:51.247Z,100478.84
2022-09-05T17:12:28.600Z,100475.25
2022-09-05T17:15:03.548Z,100484.81
2022-09-05T17:18:22.650Z,100478.28
2022-09-05T17:20:59.395Z,100479.22
2022-09-05T17:27:39.748Z,100467.28
2022-09-05T17:29:33.947Z,100476.31
2022-09-05T17:32:31.620Z,100469.63
2022-09-05T17:35:16.810Z,100471.81
2022-09-05T17:38:11.560Z,100456.25
2022-09-05T17:41:04.201Z,100463.44
2022-09-05T17:43:39.571Z,100472.44
2022-09-05T17:46:26.216Z,100463.19
2022-09-05T17:49:19.103Z,100463.94
2022-09-05T17:51:54.356Z,100481.00
2022-09-05T17:54:33.623Z,100484.09
2022-09-05T17:57:33.532Z,100484.84
2022-09-05T18:00:31.801Z,100477.97
2022-09-05T18:03:00.150Z,100484.72
2022-09-05T18:06:01.117Z,100488.13
2022-09-05T18:08:50.005Z,100479.72
2022-09-05T18:11:44.914Z,100484.25
2022-09-05T18:20:27.786Z,100484.59
2022-09-05T18:23:19.324Z,100481.50
2022-09-05T18:25:58.022Z,100490.31
2022-09-05T18:28:53.726Z,100494.25
2022-09-05T18:31:45.162Z,100493.22
2022-09-05T18:34:13.689Z,100502.94
2022-09-05T18:36:52.987Z,100498.34
2022-09-05T18:39:24.264Z,100500.94
2022-09-05T18:42:25.857Z,100498.84
2022-09-05T18:45:15.091Z,100506.31
2022-09-05T18:47:59.198Z,100504.50
2022-09-05T18:50:40.424Z,100504.66
2022-09-05T18:53:13.401Z,100495.06
2022-09-05T18:56:13.086Z,100503.69
2022-09-05T18:59:09.705Z,100492.53
2022-09-05T19:02:04.543Z,100493.69
2022-09-05T19:04:49.564Z,100505.59
2022-09-05T19:07:33.662Z,100500.13
2022-09-05T19:10:34.820Z,100508.31
2022-09-05T19:13:31.782Z,100507.56
2022-09-05T19:16:43.909Z,100491.09
2022-09-05T19:19:10.383Z,100493.28
2022-09-05T19:22:36.020Z,100489.34
2022-09-05T19:24:48.547Z,100492.66
2022-09-05T19:29:27.925Z,100492.50
2022-09-05T19:37:04.607Z,100495.34
2022-09-05T19:37:06.732Z,100491.50
2022-09-05T19:37:15.103Z,100489.63
2022-09-05T19:41:36.800Z,100488.78
2022-09-05T19:47:31.255Z,100489.63
2022-09-05T19:47:39.629Z,100485.22
2022-09-05T19:50:30.969Z,100481.03
2022-09-05T19:53:07.773Z,100486.59
2022-09-05T19:55:38.572Z,100483.44
2022-09-05T19:58:20.943Z,100480.25
2022-09-05T20:01:08.403Z,100474.28
2022-09-05T20:03:48.430Z,100474.38
2022-09-05T20:06:30.957Z,100464.19
2022-09-05T20:09:22.493Z,100470.91
2022-09-05T20:11:58.674Z,100463.22
2022-09-05T20:14:35.725Z,100461.66
2022-09-05T20:17:28.803Z,100460.69
2022-09-05T20:20:12.369Z,100452.06
2022-09-05T20:22:50.554Z,100452.34
2022-09-05T20:25:41.457Z,100462.66
2022-09-05T20:28:22.578Z,100463.22
2022-09-05T20:31:27.163Z,100465.03
2022-09-05T20:34:00.831Z,100456.81
2022-09-05T20:43:15.474Z,100471.97
2022-09-05T20:43:18.808Z,100472.31
2022-09-05T20:43:32.030Z,100471.53
2022-09-05T20:46:30.642Z,100475.09
2022-09-05T20:54:05.272Z,100473.03
2022-09-05T20:54:15.415Z,100478.09
2022-09-05T20:54:34.668Z,100465.28
2022-09-05T20:57:34.084Z,100467.41
2022-09-05T21:00:20.498Z,100468.94
2022-09-05T21:02:58.679Z,100471.91
2022-09-05T21:05:34.543Z,100479.34
2022-09-05T21:08:36.597Z,100470.13
2022-09-05T21:11:06.695Z,100473.78
2022-09-05T21:13:52.356Z,100477.28
2022-09-05T21:16:27.701Z,100483.69
2022-09-05T21:18:55.915Z,100475.97
2022-09-05T21:21:30.270Z,100472.38
2022-09-05T21:24:17.601Z,100468.81
2022-09-05T21:26:48.724Z,100472.78
2022-09-05T21:29:32.320Z,100473.16
2022-09-05T21:32:10.515Z,100479.66
2022-09-05T21:34:49.674Z,100475.38
2022-09-05T21:37:19.722Z,100458.88
2022-09-05T21:39:59.869Z,100463.19
2022-09-05T21:42:49.718Z,100468.00
2022-09-05T21:47:35.736Z,100464.34
2022-09-05T21:48:28.442Z,100464.50
2022-09-05T21:51:02.725Z,100471.16
2022-09-05T21:59:14.322Z,100460.94
2022-09-05T21:59:25.236Z,100471.06
2022-09-05T21:59:50.029Z,100476.00
2022-09-05T22:02:18.645Z,100464.41
2022-09-05T22:04:47.653Z,100462.84
2022-09-05T22:07:26.367Z,100463.94
2022-09-05T22:10:04.534Z,100470.22
2022-09-05T22:12:39.326Z,100465.31
2022-09-05T22:15:26.783Z,100468.38
2022-09-05T22:18:16.668Z,100461.88
2022-09-05T22:21:33.534Z,100448.19
2022-09-05T22:23:44.443Z,100446.00
2022-09-05T22:26:14.303Z,100439.72
2022-09-05T22:28:48.911Z,100453.75
2022-09-05T22:31:20.799Z,100458.31
2022-09-05T22:33:51.164Z,100461.38
2022-09-05T22:36:19.862Z,100451.03
2022-09-05T22:38:48.378Z,100456.59
2022-09-05T22:41:17.223Z,100460.41
2022-09-05T22:43:46.802Z,100451.50
2022-09-05T22:46:15.130Z,100457.94
2022-09-05T22:48:43.330Z,100458.16
2022-09-05T22:51:11.488Z,100450.31
2022-09-05T22:53:39.581Z,100442.41
2022-09-05T22:56:11.104Z,100438.84
2022-09-05T22:58:45.239Z,100449.56
2022-09-05T23:01:13.332Z,100447.84
2022-09-05T23:03:41.334Z,100437.38
2022-09-05T23:06:10.430Z,100439.84
2022-09-05T23:08:38.444Z,100425.81
2022-09-05T23:11:09.696Z,100433.44
2022-09-05T23:13:38.389Z,100425.06
2022-09-05T23:16:07.144Z,100420.28
2022-09-05T23:18:35.348Z,100425.44
2022-09-05T23:21:14.992Z,100422.13
2022-09-05T23:23:43.183Z,100427.28
2022-09-05T23:26:13.549Z,100428.66
2022-09-05T23:28:43.731Z,100430.75
2022-09-05T23:31:12.822Z,100418.34
2022-09-05T23:33:42.296Z,100422.75
2022-09-05T23:36:15.870Z,100424.84
2022-09-05T23:38:44.500Z,100417.94
2022-09-05T23:41:15.435Z,100420.44
2022-09-05T23:43:43.729Z,100413.41
2022-09-05T23:46:12.015Z,100413.88
2022-09-05T23:48:40.420Z,100415.88
2022-09-05T23:51:11.682Z,100414.28
2022-09-05T23:53:40.868Z,100398.03
2022-09-05T23:56:11.214Z,100407.25
2022-09-05T23:58:39.809Z,100401.44
